createdAt,value
2024-04-19T00:00:50.799Z,1019.12
2024-04-19T00:02:48.317Z,1019.08
2024-04-19T00:04:50.821Z,1019.08
2024-04-19T00:06:48.141Z,1019.05
2024-04-19T00:08:48.105Z,1019.02
2024-04-19T00:10:48.093Z,1019.02
2024-04-19T00:12:51.003Z,1019.02
2024-04-19T00:14:48.148Z,1018.96
2024-04-19T00:16:48.126Z,1018.96
2024-04-19T00:18:53.713Z,1018.96
2024-04-19T00:20:48.252Z,1018.96
2024-04-19T00:22:48.052Z,1018.96
2024-04-19T00:24:49.409Z,1018.95
2024-04-19T00:26:50.811Z,1018.95
2024-04-19T00:28:48.074Z,1018.91
2024-04-19T00:30:48.060Z,1018.89
2024-04-19T00:32:54.773Z,1018.89
2024-04-19T00:34:48.162Z,1018.84
2024-04-19T00:36:57.251Z,1018.84
2024-04-19T00:38:50.675Z,1018.84
2024-04-19T00:40:48.061Z,1018.84
2024-04-19T00:42:53.898Z,1018.89
2024-04-19T00:44:56.709Z,1018.87
2024-04-19T00:46:51.160Z,1018.85
2024-04-19T00:48:49.205Z,1018.83
2024-04-19T00:50:48.105Z,1018.83
2024-04-19T00:52:48.090Z,1018.86
2024-04-19T00:54:52.346Z,1018.84
2024-04-19T00:56:51.367Z,1018.82
2024-04-19T00:58:48.099Z,1018.81
2024-04-19T01:00:49.198Z,1018.81
2024-04-19T01:02:48.071Z,1018.84
2024-04-19T01:04:50.933Z,1018.84
2024-04-19T01:06:48.161Z,1018.83
2024-04-19T01:08:48.101Z,1018.84
2024-04-19T01:10:48.143Z,1018.84
2024-04-19T01:12:51.037Z,1018.84
2024-04-19T01:14:48.086Z,1018.73
2024-04-19T01:16:48.315Z,1018.73
2024-04-19T01:18:51.142Z,1018.73
2024-04-19T01:20:48.136Z,1018.65
2024-04-19T01:22:48.000Z,1018.70
2024-04-19T01:24:48.112Z,1018.68
2024-04-19T01:26:50.126Z,1018.65
2024-04-19T01:28:47.990Z,1018.65
2024-04-19T01:30:48.081Z,1018.64
2024-04-19T01:32:48.056Z,1018.64
2024-04-19T01:34:47.954Z,1018.64
2024-04-19T01:36:48.295Z,1018.64
2024-04-19T01:38:53.127Z,1018.64
2024-04-19T01:40:47.997Z,1018.58
2024-04-19T01:42:48.056Z,1018.58
2024-04-19T01:45:48.034Z,1018.58
2024-04-19T01:46:50.482Z,1018.58
2024-04-19T01:48:57.157Z,1018.51
2024-04-19T01:51:51.027Z,1018.46
2024-04-19T01:53:48.023Z,1018.46
2024-04-19T01:55:49.048Z,1018.46
2024-04-19T01:57:48.535Z,1018.46
2024-04-19T01:58:53.112Z,1018.46
2024-04-19T02:01:49.087Z,1018.26
2024-04-19T02:03:48.479Z,1018.26
2024-04-19T02:05:51.151Z,1018.23
2024-04-19T02:07:48.122Z,1018.23
2024-04-19T02:09:48.067Z,1018.22
2024-04-19T02:11:48.076Z,1018.22
2024-04-19T02:13:48.066Z,1018.22
2024-04-19T02:15:48.244Z,1018.22
2024-04-19T02:17:48.131Z,1018.22
2024-04-19T02:19:48.014Z,1018.22
2024-04-19T02:21:51.055Z,1018.10
2024-04-19T02:23:50.720Z,1018.10
2024-04-19T02:25:53.887Z,1017.98
2024-04-19T02:27:51.140Z,1017.98
2024-04-19T02:29:51.253Z,1017.98
2024-04-19T02:31:50.999Z,1017.94
2024-04-19T02:33:48.263Z,1017.94
2024-04-19T02:35:50.901Z,1017.82
2024-04-19T02:37:53.914Z,1017.82
2024-04-19T02:39:48.271Z,1017.82
2024-04-19T02:41:48.986Z,1017.72
2024-04-19T02:43:53.790Z,1017.66
2024-04-19T02:45:56.534Z,1017.68
2024-04-19T02:47:50.908Z,1017.68
2024-04-19T02:49:53.912Z,1017.68
2024-04-19T02:51:48.217Z,1017.68
2024-04-19T02:53:50.564Z,1017.68
2024-04-19T02:56:02.066Z,1017.65
2024-04-19T02:57:51.041Z,1017.65
2024-04-19T03:00:03.302Z,1017.63
2024-04-19T03:01:48.078Z,1017.63
2024-04-19T03:03:48.165Z,1017.59
2024-04-19T03:05:50.765Z,1017.59
2024-04-19T03:07:48.101Z,1017.59
2024-04-19T03:09:50.909Z,1017.46
2024-04-19T03:11:48.038Z,1017.43
2024-04-19T03:13:50.990Z,1017.35
2024-04-19T03:15:51.362Z,1017.35
2024-04-19T03:17:48.079Z,1017.35
2024-04-19T03:19:48.061Z,1017.35
2024-04-19T03:21:48.195Z,1017.34
2024-04-19T03:23:51.176Z,1017.32
2024-04-19T03:25:48.100Z,1017.32
2024-04-19T03:27:50.757Z,1017.32
2024-04-19T03:29:50.925Z,1017.30
2024-04-19T03:31:48.045Z,1017.30
2024-04-19T03:33:48.354Z,1017.26
2024-04-19T03:35:48.042Z,1017.26
2024-04-19T03:37:50.935Z,1017.22
2024-04-19T03:39:53.936Z,1017.19
2024-04-19T03:41:48.067Z,1017.19
2024-04-19T03:43:50.719Z,1017.19
2024-04-19T03:45:48.157Z,1016.98
2024-04-19T03:47:48.163Z,1016.96
2024-04-19T03:49:48.174Z,1016.96
2024-04-19T03:51:54.093Z,1016.89
2024-04-19T03:53:48.077Z,1016.89
2024-04-19T03:55:48.170Z,1016.92
2024-04-19T03:57:53.890Z,1016.92
2024-04-19T03:59:51.784Z,1016.92
2024-04-19T04:01:48.136Z,1016.95
2024-04-19T04:03:56.816Z,1016.95
2024-04-19T04:05:48.166Z,1016.89
2024-04-19T04:07:48.162Z,1016.89
2024-04-19T04:09:50.822Z,1016.84
2024-04-19T04:11:48.178Z,1016.81
2024-04-19T04:13:48.871Z,1016.81
2024-04-19T04:15:48.243Z,1016.80
2024-04-19T04:17:50.892Z,1016.80
2024-04-19T04:19:48.055Z,1016.74
2024-04-19T04:21:48.199Z,1016.74
2024-04-19T04:23:48.164Z,1016.71
2024-04-19T04:25:48.679Z,1016.77
2024-04-19T04:27:48.379Z,1016.77
2024-04-19T04:30:00.289Z,1016.68
2024-04-19T04:31:48.159Z,1016.68
2024-04-19T04:33:48.250Z,1016.64
2024-04-19T04:35:48.246Z,1016.67
2024-04-19T04:37:48.344Z,1016.71
2024-04-19T04:39:48.274Z,1016.71
2024-04-19T04:41:48.231Z,1016.71
2024-04-19T04:43:48.146Z,1016.71
2024-04-19T04:45:48.252Z,1016.71
2024-04-19T04:47:49.027Z,1016.58
2024-04-19T04:49:48.316Z,1016.58
2024-04-19T04:51:48.223Z,1016.58
2024-04-19T04:53:48.140Z,1016.53
2024-04-19T04:55:53.692Z,1016.53
2024-04-19T04:57:48.317Z,1016.53
2024-04-19T04:59:48.323Z,1016.53
2024-04-19T05:01:48.185Z,1016.59
2024-04-19T05:03:48.208Z,1016.59
2024-04-19T05:05:51.187Z,1016.59
2024-04-19T05:07:48.130Z,1016.59
2024-04-19T05:09:58.948Z,1016.59
2024-04-19T05:11:52.011Z,1016.59
2024-04-19T05:13:48.002Z,1016.59
2024-04-19T05:15:47.953Z,1016.59
2024-04-19T05:17:48.244Z,1016.59
2024-04-19T05:19:55.842Z,1016.59
2024-04-19T05:24:08.391Z,1016.50
2024-04-19T05:26:17.389Z,1016.50
2024-04-19T05:28:05.454Z,1016.50
2024-04-19T05:30:05.476Z,1016.48
2024-04-19T05:32:08.134Z,1016.48
2024-04-19T05:34:11.253Z,1016.48
2024-04-19T05:36:09.218Z,1016.37
2024-04-19T05:38:05.413Z,1016.32
2024-04-19T05:40:09.369Z,1016.30
2024-04-19T05:42:05.444Z,1016.30
2024-04-19T05:44:08.466Z,1016.30
2024-04-19T05:46:14.268Z,1016.30
2024-04-19T05:48:05.526Z,1016.24
2024-04-19T05:50:05.446Z,1016.24
2024-04-19T05:52:05.476Z,1016.22
2024-04-19T05:54:05.645Z,1016.16
2024-04-19T05:56:11.324Z,1016.20
2024-04-19T05:58:07.995Z,1016.17
2024-04-19T06:00:05.438Z,1016.17
2024-04-19T06:02:08.343Z,1016.17
2024-04-19T06:04:05.787Z,1016.06
2024-04-19T06:06:05.489Z,1015.95
2024-04-19T06:08:05.434Z,1015.89
2024-04-19T06:10:05.435Z,1015.89
2024-04-19T06:12:05.577Z,1015.86
2024-04-19T06:14:10.585Z,1015.86
2024-04-19T06:16:05.455Z,1015.79
2024-04-19T06:18:05.572Z,1015.79
2024-04-19T06:20:19.803Z,1015.84
2024-04-19T06:22:05.677Z,1015.84
2024-04-19T06:24:08.445Z,1015.88
2024-04-19T06:27:05.496Z,1015.86
2024-04-19T06:29:08.627Z,1015.89
2024-04-19T06:31:11.278Z,1015.86
2024-04-19T06:32:08.521Z,1015.86
2024-04-19T06:35:05.750Z,1015.74
2024-04-19T06:37:05.733Z,1015.73
2024-04-19T06:39:09.329Z,1015.76
2024-04-19T06:41:05.630Z,1015.76
2024-04-19T06:43:05.550Z,1015.76
2024-04-19T06:45:08.147Z,1015.77
2024-04-19T06:47:08.179Z,1015.74
2024-04-19T06:49:05.533Z,1015.73
2024-04-19T06:51:05.551Z,1015.73
2024-04-19T06:53:08.567Z,1015.71
2024-04-19T06:55:14.509Z,1015.59
2024-04-19T06:57:05.485Z,1015.65
2024-04-19T06:59:05.485Z,1015.60
2024-04-19T07:01:15.607Z,1015.60
2024-04-19T07:03:08.802Z,1015.54
2024-04-19T07:05:08.280Z,1015.61
2024-04-19T07:07:11.416Z,1015.55
2024-04-19T07:09:17.719Z,1015.54
2024-04-19T07:11:05.472Z,1015.54
2024-04-19T07:13:05.809Z,1015.44
2024-04-19T07:15:08.469Z,1015.44
2024-04-19T07:17:05.560Z,1015.43
2024-04-19T07:19:17.776Z,1015.43
2024-04-19T07:21:08.631Z,1015.44
2024-04-19T07:23:11.642Z,1015.44
2024-04-19T07:25:05.490Z,1015.27
2024-04-19T07:27:11.558Z,1015.31
2024-04-19T07:29:05.526Z,1015.31
2024-04-19T07:31:08.219Z,1015.31
2024-04-19T07:33:08.262Z,1015.27
2024-04-19T07:35:05.458Z,1015.22
2024-04-19T07:37:14.155Z,1015.19
2024-04-19T07:39:20.471Z,1015.19
2024-04-19T07:41:12.641Z,1015.17
2024-04-19T07:43:17.672Z,1015.01
2024-04-19T07:45:08.799Z,1015.01
2024-04-19T07:47:08.722Z,1015.01
2024-04-19T07:49:05.678Z,1014.93
2024-04-19T07:51:19.818Z,1014.90
2024-04-19T07:53:05.523Z,1014.90
2024-04-19T07:55:17.332Z,1014.83
2024-04-19T07:57:05.554Z,1014.83
2024-04-19T07:59:11.673Z,1014.77
2024-04-19T08:01:05.704Z,1014.71
2024-04-19T08:03:19.815Z,1014.71
2024-04-19T08:05:19.839Z,1014.63
2024-04-19T08:07:23.854Z,1014.63
2024-04-19T08:09:15.066Z,1014.54
2024-04-19T08:11:05.522Z,1014.41
2024-04-19T08:13:11.471Z,1014.38
2024-04-19T08:15:05.548Z,1014.32
2024-04-19T08:17:05.652Z,1014.32
2024-04-19T08:19:05.676Z,1014.26
2024-04-19T08:21:05.538Z,1014.19
2024-04-19T08:23:14.995Z,1014.24
2024-04-19T08:25:05.618Z,1014.24
2024-04-19T08:27:05.701Z,1014.18
2024-04-19T08:29:17.947Z,1014.13
2024-04-19T08:31:19.834Z,1014.08
2024-04-19T08:33:11.343Z,1014.01
2024-04-19T08:35:11.376Z,1014.01
2024-04-19T08:37:05.582Z,1013.97
2024-04-19T08:39:05.576Z,1014.04
2024-04-19T08:41:14.335Z,1014.09
2024-04-19T08:43:05.573Z,1014.09
2024-04-19T08:45:11.223Z,1014.09
2024-04-19T08:47:05.567Z,1014.05
2024-04-19T08:49:05.749Z,1014.07
2024-04-19T08:51:05.557Z,1013.94
2024-04-19T08:53:16.093Z,1013.94
2024-04-19T08:55:05.684Z,1013.89
2024-04-19T08:57:06.573Z,1013.89
2024-04-19T08:59:17.645Z,1013.85
2024-04-19T09:01:05.652Z,1013.85
2024-04-19T09:03:05.866Z,1013.85
2024-04-19T09:05:11.575Z,1013.85
2024-04-19T09:07:08.447Z,1013.54
2024-04-19T09:09:05.586Z,1013.62
2024-04-19T09:11:08.562Z,1013.60
2024-04-19T09:13:14.188Z,1013.60
2024-04-19T09:15:19.894Z,1013.48
2024-04-19T09:17:17.462Z,1013.47
2024-04-19T09:19:08.313Z,1013.39
2024-04-19T09:21:06.141Z,1013.39
2024-04-19T09:23:05.519Z,1013.39
2024-04-19T09:25:05.640Z,1013.39
2024-04-19T09:27:15.296Z,1013.24
2024-04-19T09:29:06.632Z,1013.24
2024-04-19T09:31:17.600Z,1013.24
2024-04-19T09:33:08.716Z,1013.08
2024-04-19T09:35:05.568Z,1013.15
2024-04-19T09:37:07.366Z,1013.10
2024-04-19T09:39:05.537Z,1013.00
2024-04-19T09:41:05.575Z,1013.00
2024-04-19T09:43:11.251Z,1013.08
2024-04-19T09:45:05.523Z,1013.02
2024-04-19T09:47:05.701Z,1012.99
2024-04-19T09:49:05.634Z,1012.99
2024-04-19T09:51:05.558Z,1012.95
2024-04-19T09:53:05.652Z,1012.87
2024-04-19T09:55:05.566Z,1012.81
2024-04-19T09:57:05.640Z,1012.77
2024-04-19T09:59:05.547Z,1012.77
2024-04-19T10:02:09.534Z,1012.69
2024-04-19T10:04:08.503Z,1012.69
2024-04-19T10:06:06.923Z,1012.69
2024-04-19T10:08:05.631Z,1012.65
2024-04-19T10:10:05.570Z,1012.63
2024-04-19T10:12:05.572Z,1012.63
2024-04-19T10:14:09.974Z,1012.63
2024-04-19T10:16:09.143Z,1012.50
2024-04-19T10:18:07.352Z,1012.41
2024-04-19T10:20:05.643Z,1012.33
2024-04-19T10:22:05.603Z,1012.33
2024-04-19T10:24:05.706Z,1012.39
2024-04-19T10:25:17.867Z,1012.35
2024-04-19T10:28:11.440Z,1012.29
2024-04-19T10:30:18.644Z,1012.28
2024-04-19T10:32:05.738Z,1012.28
2024-04-19T10:34:08.150Z,1012.28
2024-04-19T10:36:14.698Z,1012.22
2024-04-19T10:37:17.283Z,1012.22
2024-04-19T10:40:05.690Z,1012.14
2024-04-19T10:42:05.601Z,1012.14
2024-04-19T10:44:17.380Z,1012.13
2024-04-19T10:46:08.602Z,1012.13
2024-04-19T10:48:05.847Z,1011.99
2024-04-19T10:50:17.614Z,1011.99
2024-04-19T10:52:08.425Z,1011.90
2024-04-19T10:54:08.657Z,1011.93
2024-04-19T10:56:08.613Z,1011.84
2024-04-19T10:58:08.279Z,1011.83
2024-04-19T11:00:08.348Z,1011.83
2024-04-19T11:02:11.840Z,1011.76
2024-04-19T11:04:17.813Z,1011.68
2024-04-19T11:06:14.981Z,1011.69
2024-04-19T11:08:11.513Z,1011.64
2024-04-19T11:10:08.611Z,1011.64
2024-04-19T11:12:19.992Z,1011.58
2024-04-19T11:14:05.579Z,1011.56
2024-04-19T11:16:05.853Z,1011.48
2024-04-19T11:18:05.974Z,1011.42
2024-04-19T11:22:05.962Z,1011.37
2024-04-19T11:24:17.791Z,1011.34
2024-04-19T11:26:05.784Z,1011.34
2024-04-19T11:28:08.817Z,1011.34
2024-04-19T11:30:08.691Z,1011.32
2024-04-19T11:32:11.414Z,1011.33
2024-04-19T11:34:08.494Z,1011.24
2024-04-19T11:36:20.885Z,1011.26
2024-04-19T11:38:13.033Z,1011.26
2024-04-19T11:40:15.535Z,1011.25
2024-04-19T11:42:20.065Z,1011.15
2024-04-19T11:44:11.848Z,1011.09
2024-04-19T11:47:41.454Z,1011.07
2024-04-19T11:50:35.965Z,1010.93
2024-04-19T11:51:43.629Z,1010.93
2024-04-19T11:53:41.756Z,1011.00
2024-04-19T11:55:47.541Z,1010.98
2024-04-19T11:58:32.703Z,1011.01
2024-04-19T12:00:32.756Z,1010.98
2024-04-19T12:01:44.721Z,1010.98
2024-04-19T12:04:32.812Z,1010.90
2024-04-19T12:06:32.834Z,1010.90
2024-04-19T12:08:32.628Z,1010.90
2024-04-19T12:10:41.718Z,1010.90
2024-04-19T12:12:05.509Z,1010.90
2024-04-19T12:15:21.872Z,1010.86
2024-04-19T12:16:42.811Z,1010.86
2024-04-19T12:18:32.946Z,1010.83
2024-04-19T12:20:46.897Z,1010.91
2024-04-19T12:22:34.542Z,1010.84
2024-04-19T12:24:33.954Z,1010.84
2024-04-19T12:26:33.280Z,1010.84
2024-04-19T12:28:53.270Z,1010.80
2024-04-19T12:30:32.985Z,1010.76
2024-04-19T12:32:33.381Z,1010.76
2024-04-19T12:34:33.647Z,1010.76
2024-04-19T12:36:35.458Z,1010.73
2024-04-19T12:38:34.031Z,1010.68
2024-04-19T12:40:35.409Z,1010.70
2024-04-19T12:42:32.856Z,1010.65
2024-04-19T12:44:35.606Z,1010.65
2024-04-19T12:46:32.741Z,1010.54
2024-04-19T12:48:32.826Z,1010.54
2024-04-19T12:50:32.762Z,1010.62
2024-04-19T12:52:32.724Z,1010.62
2024-04-19T12:54:35.234Z,1010.59
2024-04-19T12:56:32.685Z,1010.45
2024-04-19T12:58:32.650Z,1010.38
2024-04-19T13:00:32.878Z,1010.44
2024-04-19T13:02:32.747Z,1010.44
2024-04-19T13:04:32.649Z,1010.30
2024-04-19T13:06:32.702Z,1010.34
2024-04-19T13:08:36.496Z,1010.31
2024-04-19T13:10:32.706Z,1010.29
2024-04-19T13:12:33.055Z,1010.29
2024-04-19T13:14:32.673Z,1010.25
2024-04-19T13:16:32.733Z,1010.15
2024-04-19T13:18:32.711Z,1010.13
2024-04-19T13:20:32.715Z,1010.16
2024-04-19T13:22:33.023Z,1010.16
2024-04-19T13:24:32.732Z,1010.14
2024-04-19T13:26:38.419Z,1010.10
2024-04-19T13:28:32.946Z,1010.10
2024-04-19T13:30:32.771Z,1010.10
2024-04-19T13:32:32.808Z,1009.83
2024-04-19T13:34:32.702Z,1009.79
2024-04-19T13:36:33.043Z,1009.82
2024-04-19T13:38:35.328Z,1009.82
2024-04-19T13:40:32.701Z,1009.82
2024-04-19T13:42:45.151Z,1009.86
2024-04-19T13:44:35.333Z,1009.80
2024-04-19T13:46:32.831Z,1009.74
2024-04-19T13:48:35.797Z,1009.82
2024-04-19T13:50:35.484Z,1009.82
2024-04-19T13:52:32.795Z,1009.82
2024-04-19T13:54:32.769Z,1009.74
2024-04-19T13:56:33.463Z,1009.78
2024-04-19T13:58:32.813Z,1009.78
2024-04-19T14:00:32.946Z,1009.67
2024-04-19T14:02:32.713Z,1009.63
2024-04-19T14:04:32.766Z,1009.56
2024-04-19T14:06:32.856Z,1009.62
2024-04-19T14:08:32.698Z,1009.62
2024-04-19T14:10:32.886Z,1009.62
2024-04-19T14:12:32.817Z,1009.53
2024-04-19T14:14:41.547Z,1009.50
2024-04-19T14:16:35.526Z,1009.50
2024-04-19T14:18:32.778Z,1009.50
2024-04-19T14:20:40.485Z,1009.34
2024-04-19T14:22:32.752Z,1009.35
2024-04-19T14:24:32.766Z,1009.18
2024-04-19T14:26:47.020Z,1009.18
2024-04-19T14:28:41.794Z,1009.26
2024-04-19T14:30:34.813Z,1009.32
2024-04-19T14:32:41.951Z,1009.29
2024-04-19T14:34:44.456Z,1009.14
2024-04-19T14:36:32.898Z,1009.14
2024-04-19T14:38:38.441Z,1009.34
2024-04-19T14:40:38.716Z,1009.22
2024-04-19T14:42:32.932Z,1009.31
2024-04-19T14:44:41.672Z,1009.16
2024-04-19T14:46:45.689Z,1009.16
2024-04-19T14:48:41.853Z,1009.24
2024-04-19T14:50:38.781Z,1009.24
2024-04-19T14:52:35.890Z,1009.17
2024-04-19T14:54:38.372Z,1009.17
2024-04-19T14:56:38.617Z,1009.12
2024-04-19T14:58:38.655Z,1009.10
2024-04-19T15:00:50.879Z,1009.09
2024-04-19T15:02:32.868Z,1009.02
2024-04-19T15:04:32.821Z,1009.02
2024-04-19T15:06:40.236Z,1008.98
2024-04-19T15:08:38.315Z,1008.99
2024-04-19T15:10:47.106Z,1008.95
2024-04-19T15:13:38.772Z,1008.87
2024-04-19T15:14:38.479Z,1008.87
2024-04-19T15:17:38.466Z,1008.79
2024-04-19T15:19:38.452Z,1008.79
2024-04-19T15:21:35.898Z,1008.84
2024-04-19T15:23:32.731Z,1008.83
2024-04-19T15:24:37.615Z,1008.83
2024-04-19T15:26:41.629Z,1008.82
2024-04-19T15:29:35.652Z,1008.72
2024-04-19T15:31:36.104Z,1008.72
2024-04-19T15:33:33.103Z,1008.55
2024-04-19T15:35:47.062Z,1008.54
2024-04-19T15:37:44.964Z,1008.54
2024-04-19T15:39:38.804Z,1008.42
2024-04-19T15:41:44.914Z,1008.47
2024-04-19T15:43:32.853Z,1008.56
2024-04-19T15:45:35.626Z,1008.47
2024-04-19T15:47:35.347Z,1008.47
2024-04-19T15:49:32.804Z,1008.41
2024-04-19T15:51:44.825Z,1008.47
2024-04-19T15:53:35.562Z,1008.45
2024-04-19T15:55:32.872Z,1008.45
2024-04-19T15:57:32.877Z,1008.39
2024-04-19T15:59:32.929Z,1008.50
2024-04-19T16:01:33.078Z,1008.40
2024-04-19T16:03:38.675Z,1008.43
2024-04-19T16:05:32.792Z,1008.43
2024-04-19T16:07:32.748Z,1008.44
2024-04-19T16:09:33.009Z,1008.53
2024-04-19T16:11:33.414Z,1008.53
2024-04-19T16:13:32.780Z,1008.49
2024-04-19T16:15:32.860Z,1008.49
2024-04-19T16:17:38.679Z,1008.43
2024-04-19T16:19:32.822Z,1008.48
2024-04-19T16:21:33.163Z,1008.47
2024-04-19T16:23:33.155Z,1008.36
2024-04-19T16:25:32.936Z,1008.36
2024-04-19T16:27:35.667Z,1008.56
2024-04-19T16:29:33.607Z,1008.58
2024-04-19T16:31:45.911Z,1008.61
2024-04-19T16:33:35.742Z,1008.61
2024-04-19T16:35:47.948Z,1008.54
2024-04-19T16:37:32.820Z,1008.49
2024-04-19T16:39:33.844Z,1008.64
2024-04-19T16:41:34.629Z,1008.63
2024-04-19T16:43:32.824Z,1008.63
2024-04-19T16:45:32.960Z,1008.67
2024-04-19T16:47:32.963Z,1008.63
2024-04-19T16:49:32.890Z,1008.70
2024-04-19T16:51:32.882Z,1008.70
2024-04-19T16:53:38.736Z,1008.70
2024-04-19T16:55:33.271Z,1008.65
2024-04-19T16:57:32.924Z,1008.58
2024-04-19T16:59:32.814Z,1008.66
2024-04-19T17:01:34.261Z,1008.66
2024-04-19T17:03:36.037Z,1008.62
2024-04-19T17:05:32.890Z,1008.59
2024-04-19T17:07:32.860Z,1008.57
2024-04-19T17:09:34.034Z,1008.55
2024-04-19T17:11:35.862Z,1008.55
2024-04-19T17:13:32.841Z,1008.53
2024-04-19T17:15:32.978Z,1008.53
2024-04-19T17:17:32.981Z,1008.54
2024-04-19T17:19:32.894Z,1008.57
2024-04-19T17:21:35.844Z,1008.57
2024-04-19T17:23:33.432Z,1008.52
2024-04-19T17:25:32.925Z,1008.52
2024-04-19T17:27:36.003Z,1008.60
2024-04-19T17:29:32.915Z,1008.60
2024-04-19T17:31:32.988Z,1008.55
2024-04-19T17:33:37.900Z,1008.55
2024-04-19T17:35:32.888Z,1008.49
2024-04-19T17:37:33.772Z,1008.44
2024-04-19T17:39:32.837Z,1008.44
2024-04-19T17:41:34.517Z,1008.36
2024-04-19T17:43:32.851Z,1008.32
2024-04-19T17:45:32.882Z,1008.29
2024-04-19T17:47:33.068Z,1008.31
2024-04-19T17:49:32.912Z,1008.31
2024-04-19T17:51:32.912Z,1008.24
2024-04-19T17:53:32.924Z,1008.25
2024-04-19T17:55:38.552Z,1008.19
2024-04-19T17:57:44.451Z,1008.19
2024-04-19T17:59:41.756Z,1008.25
2024-04-19T18:01:33.019Z,1008.30
2024-04-19T18:03:35.911Z,1008.28
2024-04-19T18:05:35.857Z,1008.21
2024-04-19T18:07:41.674Z,1008.21
2024-04-19T18:09:44.581Z,1008.21
2024-04-19T18:11:42.062Z,1008.25
2024-04-19T18:13:44.030Z,1008.25
2024-04-19T18:15:44.005Z,1008.27
2024-04-19T18:17:48.747Z,1008.27
2024-04-19T18:19:58.002Z,1008.28
2024-04-19T18:21:43.802Z,1008.29
2024-04-19T18:23:53.604Z,1008.26
2024-04-19T18:25:50.190Z,1008.26
2024-04-19T18:27:44.296Z,1008.16
2024-04-19T18:29:49.796Z,1008.22
2024-04-19T18:31:58.161Z,1008.40
2024-04-19T18:33:46.300Z,1008.54
2024-04-19T18:35:57.992Z,1008.54
2024-04-19T18:37:43.838Z,1008.84
2024-04-19T18:39:49.639Z,1009.14
2024-04-19T18:41:49.366Z,1009.55
2024-04-19T18:43:49.554Z,1009.41
2024-04-19T18:45:49.444Z,1009.41
2024-04-19T18:47:43.864Z,1009.34
2024-04-19T18:49:46.668Z,1009.34
2024-04-19T18:51:52.461Z,1009.38
2024-04-19T18:53:55.478Z,1009.38
2024-04-19T18:55:58.044Z,1009.38
2024-04-19T18:57:46.320Z,1009.22
2024-04-19T18:59:49.683Z,1009.26
2024-04-19T19:01:43.773Z,1009.28
2024-04-19T19:03:43.959Z,1009.28
2024-04-19T19:05:46.510Z,1009.34
2024-04-19T19:07:46.212Z,1009.32
2024-04-19T19:09:52.843Z,1009.41
2024-04-19T19:11:48.617Z,1009.37
2024-04-19T19:13:49.659Z,1009.37
2024-04-19T19:15:46.707Z,1009.47
2024-04-19T19:17:43.852Z,1009.50
2024-04-19T19:19:52.920Z,1009.45
2024-04-19T19:22:43.837Z,1009.45
2024-04-19T19:24:43.762Z,1009.42
2024-04-19T19:25:52.355Z,1009.42
2024-04-19T19:27:56.064Z,1009.47
2024-04-19T19:30:46.567Z,1009.52
2024-04-19T19:32:43.811Z,1009.51
2024-04-19T19:33:55.694Z,1009.51
2024-04-19T19:35:58.061Z,1009.51
2024-04-19T19:38:43.835Z,1009.52
2024-04-19T19:40:49.389Z,1009.43
2024-04-19T19:42:43.853Z,1009.51
2024-04-19T19:44:43.745Z,1009.59
2024-04-19T19:46:46.460Z,1009.59
2024-04-19T19:47:53.015Z,1009.60
2024-04-19T19:50:49.460Z,1009.59
2024-04-19T19:52:49.497Z,1009.76
2024-04-19T19:54:47.043Z,1009.76
2024-04-19T19:56:46.449Z,1009.76
2024-04-19T19:58:46.830Z,1009.74
2024-04-19T20:00:56.031Z,1009.88
2024-04-19T20:02:52.405Z,1009.93
2024-04-19T20:04:46.384Z,1009.93
2024-04-19T20:06:43.805Z,1009.93
2024-04-19T20:08:43.870Z,1010.01
2024-04-19T20:10:46.726Z,1010.12
2024-04-19T20:12:49.584Z,1010.18
2024-04-19T20:14:43.764Z,1010.18
2024-04-19T20:16:43.899Z,1010.18
2024-04-19T20:18:44.158Z,1010.14
2024-04-19T20:20:46.469Z,1010.15
2024-04-19T20:22:48.359Z,1010.18
2024-04-19T20:24:46.623Z,1010.18
2024-04-19T20:26:49.584Z,1010.18
2024-04-19T20:28:52.471Z,1010.20
2024-04-19T20:30:44.269Z,1010.19
2024-04-19T20:32:49.739Z,1010.19
2024-04-19T20:34:48.555Z,1010.31
2024-04-19T20:36:44.138Z,1010.35
2024-04-19T20:38:43.878Z,1010.35
2024-04-19T20:40:43.840Z,1010.34
2024-04-19T20:42:44.092Z,1010.34
2024-04-19T20:44:43.856Z,1010.46
2024-04-19T20:46:44.028Z,1010.54
2024-04-19T20:48:43.972Z,1010.52
2024-04-19T20:50:46.596Z,1010.55
2024-04-19T20:52:46.980Z,1010.55
2024-04-19T20:54:46.766Z,1010.55
2024-04-19T20:56:48.158Z,1010.55
2024-04-19T20:58:46.821Z,1010.49
2024-04-19T21:00:43.867Z,1010.49
2024-04-19T21:02:43.785Z,1010.61
2024-04-19T21:04:43.742Z,1010.57
2024-04-19T21:06:43.815Z,1010.59
2024-04-19T21:08:43.815Z,1010.55
2024-04-19T21:10:43.829Z,1010.55
2024-04-19T21:12:43.829Z,1010.58
2024-04-19T21:14:46.653Z,1010.61
2024-04-19T21:16:44.075Z,1010.65
2024-04-19T21:18:43.951Z,1010.63
2024-04-19T21:20:43.792Z,1010.63
2024-04-19T21:22:43.818Z,1010.64
2024-04-19T21:24:46.638Z,1010.64
2024-04-19T21:26:43.725Z,1010.68
2024-04-19T21:28:49.835Z,1010.68
2024-04-19T21:30:55.899Z,1010.67
2024-04-19T21:32:43.893Z,1010.74
2024-04-19T21:34:49.712Z,1010.75
2024-04-19T21:36:43.862Z,1010.75
2024-04-19T21:38:43.855Z,1010.75
2024-04-19T21:40:43.813Z,1010.78
2024-04-19T21:42:46.898Z,1010.86
2024-04-19T21:44:47.275Z,1010.90
2024-04-19T21:46:47.416Z,1010.87
2024-04-19T21:48:45.803Z,1010.87
2024-04-19T21:50:46.426Z,1010.91
2024-04-19T21:52:46.808Z,1010.93
2024-04-19T21:54:46.868Z,1010.99
2024-04-19T21:56:52.443Z,1010.98
2024-04-19T21:58:49.705Z,1010.98
2024-04-19T22:01:02.018Z,1011.02
2024-04-19T22:02:43.920Z,1011.04
2024-04-19T22:04:43.921Z,1011.05
2024-04-19T22:06:46.469Z,1011.05
2024-04-19T22:08:49.801Z,1011.02
2024-04-19T22:10:43.894Z,1011.07
2024-04-19T22:12:43.993Z,1011.05
2024-04-19T22:14:43.797Z,1011.05
2024-04-19T22:16:46.937Z,1011.05
2024-04-19T22:18:43.820Z,1011.05
2024-04-19T22:20:46.722Z,1011.09
2024-04-19T22:22:52.945Z,1011.15
2024-04-19T22:24:43.847Z,1011.15
2024-04-19T22:26:43.778Z,1011.15
2024-04-19T22:28:55.743Z,1011.18
2024-04-19T22:30:49.776Z,1011.20
2024-04-19T22:32:48.058Z,1011.16
2024-04-19T22:34:43.837Z,1011.16
2024-04-19T22:36:43.944Z,1011.15
2024-04-19T22:38:46.532Z,1011.15
2024-04-19T22:40:43.850Z,1011.21
2024-04-19T22:42:46.620Z,1011.24
2024-04-19T22:44:44.454Z,1011.24
2024-04-19T22:46:43.866Z,1011.23
2024-04-19T22:48:52.900Z,1011.26
2024-04-19T22:50:46.818Z,1011.23
2024-04-19T22:53:43.823Z,1011.27
2024-04-19T22:55:46.715Z,1011.21
2024-04-19T22:57:44.046Z,1011.21
2024-04-19T22:58:55.969Z,1011.21
2024-04-19T23:01:44.013Z,1011.24
2024-04-19T23:03:43.919Z,1011.26
2024-04-19T23:05:47.236Z,1011.25
2024-04-19T23:07:43.821Z,1011.25
2024-04-19T23:09:43.899Z,1011.29
2024-04-19T23:11:43.938Z,1011.30
2024-04-19T23:13:43.815Z,1011.30
2024-04-19T23:15:43.856Z,1011.29
2024-04-19T23:17:46.819Z,1011.29
2024-04-19T23:19:44.447Z,1011.27
2024-04-19T23:21:44.840Z,1011.30
2024-04-19T23:23:43.834Z,1011.34
2024-04-19T23:25:44.237Z,1011.29
2024-04-19T23:27:44.436Z,1011.29
2024-04-19T23:29:43.857Z,1011.28
2024-04-19T23:30:55.590Z,1011.28
2024-04-19T23:33:44.049Z,1011.27
2024-04-19T23:35:45.148Z,1011.27
2024-04-19T23:37:43.982Z,1011.29
2024-04-19T23:39:43.872Z,1011.29
2024-04-19T23:41:43.861Z,1011.21
2024-04-19T23:43:43.885Z,1011.22
2024-04-19T23:45:43.945Z,1011.22
2024-04-19T23:47:43.859Z,1011.23
2024-04-19T23:49:43.881Z,1011.29
2024-04-19T23:51:43.939Z,1011.27
2024-04-19T23:53:48.006Z,1011.27
2024-04-19T23:55:43.853Z,1011.27
2024-04-19T23:57:44.049Z,1011.31
2024-04-19T23:59:49.587Z,1011.36
